createdAt,value
2023-01-17T00:00:13.603Z,2.38
2023-01-17T00:05:13.594Z,2.43
2023-01-17T00:10:13.589Z,2.43
2023-01-17T00:15:13.587Z,2.37
2023-01-17T00:20:13.573Z,2.32
2023-01-17T00:25:13.584Z,2.21
2023-01-17T00:30:13.567Z,2.13
2023-01-17T00:35:13.774Z,2.12
2023-01-17T00:40:13.541Z,2.18
2023-01-17T00:45:13.551Z,2.18
2023-01-17T00:50:13.544Z,2.2
2023-01-17T00:55:13.575Z,2.13
2023-01-17T01:00:13.524Z,2.05
2023-01-17T01:05:13.545Z,1.88
2023-01-17T01:10:13.555Z,1.76
2023-01-17T01:15:13.534Z,1.69
2023-01-17T01:20:13.529Z,1.63
2023-01-17T01:25:13.551Z,1.59
2023-01-17T01:30:13.545Z,1.4
2023-01-17T01:35:13.547Z,1.4
2023-01-17T01:40:13.523Z,1.34
2023-01-17T01:45:13.507Z,1.27
2023-01-17T01:50:13.527Z,1.2
2023-01-17T01:55:13.516Z,1.23
2023-01-17T02:00:13.568Z,1.26
2023-01-17T02:05:13.505Z,1.29
2023-01-17T02:10:13.524Z,1.29
2023-01-17T02:15:13.512Z,1.26
2023-01-17T02:20:13.512Z,1.17
2023-01-17T02:25:13.504Z,1.09
2023-01-17T02:30:13.522Z,0.97
2023-01-17T02:35:13.489Z,0.97
2023-01-17T02:40:13.492Z,0.94
2023-01-17T02:45:13.489Z,0.95
2023-01-17T02:50:13.474Z,0.88
2023-01-17T02:55:13.500Z,0.75
2023-01-17T03:00:13.517Z,0.79
2023-01-17T03:05:13.506Z,0.66
2023-01-17T03:10:13.479Z,0.54
2023-01-17T03:15:13.488Z,0.4
2023-01-17T03:20:13.481Z,0.24
2023-01-17T03:25:13.485Z,0.12
2023-01-17T03:30:13.502Z,0.07
2023-01-17T03:35:13.508Z,0.08
2023-01-17T03:40:13.498Z,-0.02
2023-01-17T03:45:13.494Z,-0.17
2023-01-17T03:50:13.478Z,-0.29
2023-01-17T03:55:13.501Z,-0.41
2023-01-17T04:00:13.506Z,-0.53
2023-01-17T04:05:13.471Z,-0.64
2023-01-17T04:10:13.511Z,-0.75
2023-01-17T04:15:13.463Z,-0.88
2023-01-17T04:20:13.469Z,-0.94
2023-01-17T04:25:13.474Z,-1.03
2023-01-17T04:30:13.469Z,-1.15
2023-01-17T04:35:13.454Z,-1.24
2023-01-17T04:40:13.472Z,-1.33
2023-01-17T04:45:13.479Z,-1.41
2023-01-17T04:50:13.468Z,-1.42
2023-01-17T05:00:13.457Z,-1.49
2023-01-17T05:05:13.458Z,-1.62
2023-01-17T05:10:13.472Z,-1.67
2023-01-17T05:15:13.453Z,-1.72
2023-01-17T05:20:13.457Z,-1.75
2023-01-17T05:25:13.468Z,-1.79
2023-01-17T05:30:13.467Z,-1.84
2023-01-17T05:35:13.451Z,-1.93
2023-01-17T05:40:13.442Z,-1.99
2023-01-17T05:45:13.452Z,-2.01
2023-01-17T05:50:13.462Z,-2.04
2023-01-17T05:55:13.471Z,-2.1
2023-01-17T06:00:13.453Z,-2.13
2023-01-17T06:05:13.496Z,-2.17
2023-01-17T06:10:13.451Z,-2.22
2023-01-17T06:15:13.457Z,-2.27
2023-01-17T06:20:13.476Z,-2.31
2023-01-17T06:25:13.456Z,-2.25
2023-01-17T06:30:13.477Z,-2.27
2023-01-17T06:35:13.458Z,-2.33
2023-01-17T06:40:13.446Z,-2.34
2023-01-17T06:45:13.445Z,-2.39
2023-01-17T06:50:13.440Z,-2.44
2023-01-17T06:55:13.460Z,-2.44
2023-01-17T07:00:13.477Z,-2.42
2023-01-17T07:05:13.640Z,-2.46
2023-01-17T07:10:13.454Z,-2.51
2023-01-17T07:15:13.436Z,-2.53
2023-01-17T07:20:13.437Z,-2.49
2023-01-17T07:25:13.463Z,-2.39
2023-01-17T07:30:13.443Z,-2.34
2023-01-17T07:35:13.449Z,-2.23
2023-01-17T07:40:13.485Z,-2.08
2023-01-17T07:45:13.459Z,-1.92
2023-01-17T07:50:13.461Z,-1.68
2023-01-17T07:55:13.450Z,-1.42
2023-01-17T08:00:13.439Z,-1.28
2023-01-17T08:05:13.440Z,-1.05
2023-01-17T08:10:13.460Z,-0.86
2023-01-17T08:15:13.448Z,-0.64
2023-01-17T08:20:13.547Z,-0.46
2023-01-17T08:25:13.436Z,-0.24
2023-01-17T08:30:13.447Z,-0.06
2023-01-17T08:35:13.456Z,0.01
2023-01-17T08:40:13.471Z,0.02
2023-01-17T08:45:13.449Z,0.2
2023-01-17T08:50:13.445Z,0.39
2023-01-17T08:55:13.455Z,0.64
2023-01-17T09:00:13.431Z,0.95
2023-01-17T09:05:13.426Z,1.3
2023-01-17T09:10:13.442Z,1.48
2023-01-17T09:15:13.423Z,1.64
2023-01-17T09:20:13.418Z,1.78
2023-01-17T09:25:13.435Z,2.07
2023-01-17T09:30:13.448Z,2.19
2023-01-17T09:35:13.421Z,2.22
2023-01-17T09:45:13.412Z,2.62
2023-01-17T09:50:13.433Z,2.87
2023-01-17T10:05:13.461Z,3.53
2023-01-17T10:15:13.389Z,3.49
2023-01-17T10:20:13.419Z,3.43
2023-01-17T10:25:13.394Z,3.38
2023-01-17T10:30:13.372Z,3.46
2023-01-17T10:35:14.860Z,3.65
2023-01-17T10:55:13.365Z,3.71
2023-01-17T11:10:13.364Z,3.49
2023-01-17T11:15:13.358Z,3.52
2023-01-17T11:20:13.362Z,3.65
2023-01-17T11:25:13.373Z,3.81
2023-01-17T11:30:13.368Z,4.05
2023-01-17T11:35:13.358Z,4.2
2023-01-17T11:40:13.354Z,4.33
2023-01-17T11:45:13.370Z,4.5
2023-01-17T11:50:13.368Z,4.61
2023-01-17T11:55:13.341Z,4.71
2023-01-17T12:00:13.326Z,4.81
2023-01-17T12:05:13.443Z,4.92
2023-01-17T12:10:13.325Z,5.05
2023-01-17T12:15:13.341Z,5.12
2023-01-17T12:20:13.336Z,5.19
2023-01-17T12:25:13.334Z,5.19
2023-01-17T12:30:13.318Z,5.12
2023-01-17T12:35:13.318Z,5.13
2023-01-17T12:40:13.397Z,5.19
2023-01-17T12:45:13.346Z,5.16
2023-01-17T12:50:13.365Z,5.03
2023-01-17T12:55:13.300Z,5
2023-01-17T13:00:13.358Z,4.94
2023-01-17T13:05:13.323Z,4.83
2023-01-17T13:10:13.275Z,4.69
2023-01-17T13:15:13.317Z,4.65
2023-01-17T13:20:13.293Z,4.65
2023-01-17T13:25:13.265Z,4.54
2023-01-17T13:30:13.269Z,4.46
2023-01-17T13:35:13.274Z,4.41
2023-01-17T13:40:13.291Z,4.35
2023-01-17T13:45:13.272Z,4.3
2023-01-17T13:50:13.268Z,4.2
2023-01-17T13:55:13.296Z,4.2
2023-01-17T14:00:13.271Z,4.2
2023-01-17T14:05:13.258Z,4.19
2023-01-17T14:10:13.254Z,4.19
2023-01-17T14:15:13.345Z,4.18
2023-01-17T14:20:13.268Z,4.18
2023-01-17T14:25:13.240Z,4.2
2023-01-17T14:30:13.253Z,4.2
2023-01-17T14:35:13.220Z,4.2
2023-01-17T14:40:13.278Z,3.95
2023-01-17T14:45:13.216Z,3.64
2023-01-17T14:50:13.200Z,3.38
2023-01-17T14:55:13.209Z,3.13
2023-01-17T15:00:13.222Z,2.92
2023-01-17T15:05:13.208Z,2.71
2023-01-17T15:10:13.249Z,2.5
2023-01-17T15:15:13.242Z,2.32
2023-01-17T15:20:13.200Z,2.17
2023-01-17T15:25:15.396Z,2.03
2023-01-17T15:30:13.190Z,1.89
2023-01-17T15:35:13.209Z,1.78
2023-01-17T15:40:13.180Z,1.7
2023-01-17T15:45:13.217Z,1.59
2023-01-17T15:50:13.183Z,1.52
2023-01-17T15:55:13.218Z,1.4
2023-01-17T16:00:13.173Z,1.4
2023-01-17T16:05:13.187Z,1.32
2023-01-17T16:10:13.190Z,1.26
2023-01-17T16:15:13.677Z,1.2
2023-01-17T16:20:13.181Z,1.15
2023-01-17T16:25:13.185Z,1.15
2023-01-17T16:30:13.173Z,1.19
2023-01-17T16:35:13.259Z,1.17
2023-01-17T16:40:13.201Z,1.13
2023-01-17T16:45:13.167Z,1.12
2023-01-17T16:50:13.186Z,1.13
2023-01-17T16:55:13.178Z,1.17
2023-01-17T17:00:13.163Z,1.17
2023-01-17T17:05:13.282Z,1.17
2023-01-17T17:10:13.175Z,1.23
2023-01-17T17:15:13.243Z,1.26
2023-01-17T17:20:13.165Z,1.32
2023-01-17T17:25:13.160Z,1.37
2023-01-17T17:30:13.177Z,1.4
2023-01-17T17:35:13.151Z,1.4
2023-01-17T17:40:13.170Z,1.56
2023-01-17T17:45:13.176Z,1.71
2023-01-17T17:50:13.149Z,1.78
2023-01-17T17:55:13.180Z,1.78
2023-01-17T18:00:13.135Z,1.78
2023-01-17T18:05:13.146Z,1.77
2023-01-17T18:10:13.175Z,1.78
2023-01-17T18:15:13.128Z,1.79
2023-01-17T18:20:13.127Z,1.83
2023-01-17T18:25:13.135Z,1.82
2023-01-17T18:30:13.133Z,1.83
2023-01-17T18:35:13.167Z,1.85
2023-01-17T18:40:13.142Z,1.86
2023-01-17T18:45:13.168Z,1.88
2023-01-17T18:50:13.154Z,1.89
2023-01-17T18:55:13.150Z,1.9
2023-01-17T19:00:13.138Z,1.87
2023-01-17T19:05:13.129Z,1.87
2023-01-17T19:10:13.141Z,1.87
2023-01-17T19:15:13.137Z,1.86
2023-01-17T19:20:13.135Z,1.83
2023-01-17T19:25:13.137Z,1.8
2023-01-17T19:30:13.118Z,1.78
2023-01-17T19:35:13.105Z,1.78
2023-01-17T19:40:13.097Z,1.74
2023-01-17T19:45:13.096Z,1.76
2023-01-17T19:50:13.108Z,1.71
2023-01-17T19:55:13.087Z,1.69
2023-01-17T20:00:13.098Z,1.7
2023-01-17T20:05:13.098Z,1.71
2023-01-17T20:10:13.089Z,1.78
2023-01-17T20:15:13.074Z,1.78
2023-01-17T20:20:13.085Z,1.79
2023-01-17T20:25:13.066Z,1.76
2023-01-17T20:30:19.956Z,1.7
2023-01-17T20:35:13.100Z,1.57
2023-01-17T20:40:13.069Z,1.4
2023-01-17T20:45:13.080Z,1.27
2023-01-17T20:50:13.059Z,1.13
2023-01-17T20:55:13.063Z,0.99
2023-01-17T21:00:13.068Z,0.82
2023-01-17T21:05:13.049Z,0.66
2023-01-17T21:10:13.068Z,0.5
2023-01-17T21:15:13.072Z,0.35
2023-01-17T21:20:13.082Z,0.24
2023-01-17T21:25:13.049Z,0.2
2023-01-17T21:30:13.205Z,0.14
2023-01-17T21:35:13.046Z,0.13
2023-01-17T21:40:13.032Z,0.15
2023-01-17T21:45:13.047Z,0.19
2023-01-17T21:50:22.245Z,0.2
2023-01-17T21:55:13.020Z,0.21
2023-01-17T22:00:13.062Z,0.24
2023-01-17T22:05:13.034Z,0.31
2023-01-17T22:10:13.029Z,0.35
2023-01-17T22:15:13.053Z,0.35
2023-01-17T22:20:13.046Z,0.34
2023-01-17T22:25:13.052Z,0.32
2023-01-17T22:30:13.114Z,0.31
2023-01-17T22:35:13.010Z,0.29
2023-01-17T22:40:13.037Z,0.27
2023-01-17T22:45:13.048Z,0.25
2023-01-17T22:50:13.033Z,0.23
2023-01-17T22:55:13.035Z,0.2
2023-01-17T23:00:13.015Z,0.15
2023-01-17T23:05:13.005Z,0.12
2023-01-17T23:10:13.025Z,0.07
2023-01-17T23:15:13.005Z,0.02
2023-01-17T23:20:13.017Z,0
2023-01-17T23:25:13.030Z,0
2023-01-17T23:30:13.021Z,-0.02
2023-01-17T23:35:13.013Z,-0.06
2023-01-17T23:40:13.001Z,-0.09
2023-01-17T23:45:12.999Z,-0.12
2023-01-17T23:50:13.021Z,-0.17
2023-01-17T23:55:13.060Z,-0.2
